createdAt,value
2022-08-27T00:02:09.191Z,100392.97
2022-08-27T00:04:38.241Z,100406.94
2022-08-27T00:07:06.921Z,100407.00
2022-08-27T00:09:35.509Z,100400.00
2022-08-27T00:12:06.912Z,100408.78
2022-08-27T00:14:36.279Z,100406.16
2022-08-27T00:17:06.413Z,100407.94
2022-08-27T00:19:34.523Z,100404.47
2022-08-27T00:22:02.031Z,100387.84
2022-08-27T00:24:29.513Z,100402.75
2022-08-27T00:26:57.258Z,100388.75
2022-08-27T00:29:26.575Z,100411.47
2022-08-27T00:31:57.540Z,100402.72
2022-08-27T00:34:27.855Z,100408.84
2022-08-27T00:36:55.416Z,100409.75
2022-08-27T00:39:22.948Z,100399.28
2022-08-27T00:41:50.439Z,100408.03
2022-08-27T00:44:18.040Z,100415.88
2022-08-27T00:47:02.617Z,100397.56
2022-08-27T00:49:38.887Z,100416.78
2022-08-27T00:52:15.103Z,100415.91
2022-08-27T00:54:42.932Z,100414.19
2022-08-27T00:57:10.665Z,100402.84
2022-08-27T00:59:40.036Z,100420.28
2022-08-27T01:02:19.818Z,100403.72
2022-08-27T01:05:04.908Z,100417.69
2022-08-27T01:07:36.338Z,100414.22
2022-08-27T01:10:07.677Z,100416.81
2022-08-27T01:12:36.246Z,100407.22
2022-08-27T01:15:11.019Z,100415.06
2022-08-27T01:17:43.083Z,100415.94
2022-08-27T01:20:17.897Z,100418.56
2022-08-27T01:23:15.132Z,100426.41
2022-08-27T01:25:44.261Z,100422.06
2022-08-27T01:28:13.778Z,100406.31
2022-08-27T01:30:42.428Z,100429.94
2022-08-27T01:33:18.383Z,100429.94
2022-08-27T01:35:48.447Z,100425.50
2022-08-27T01:38:30.297Z,100423.78
2022-08-27T01:41:01.164Z,100422.03
2022-08-27T01:43:32.207Z,100422.03
2022-08-27T01:46:00.403Z,100422.03
2022-08-27T01:48:27.907Z,100430.75
2022-08-27T01:50:56.184Z,100428.13
2022-08-27T01:53:26.575Z,100436.00
2022-08-27T01:55:55.640Z,100422.00
2022-08-27T01:58:28.437Z,100442.97
2022-08-27T02:01:00.807Z,100442.94
2022-08-27T02:03:28.611Z,100429.88
2022-08-27T02:05:56.257Z,100435.97
2022-08-27T02:08:26.239Z,100444.69
2022-08-27T02:10:53.787Z,100430.72
2022-08-27T02:13:21.466Z,100441.22
2022-08-27T02:15:49.297Z,100428.09
2022-08-27T02:18:17.578Z,100438.56
2022-08-27T02:20:46.808Z,100435.09
2022-08-27T02:23:16.290Z,100429.84
2022-08-27T02:25:47.328Z,100428.06
2022-08-27T02:28:15.040Z,100436.81
2022-08-27T02:30:42.561Z,100440.31
2022-08-27T02:33:10.067Z,100444.66
2022-08-27T02:35:43.903Z,100446.41
2022-08-27T02:38:13.392Z,100442.03
2022-08-27T02:40:41.391Z,100445.50
2022-08-27T02:43:09.760Z,100439.41
2022-08-27T02:45:43.479Z,100440.28
2022-08-27T02:48:11.792Z,100444.63
2022-08-27T02:50:39.622Z,100438.53
2022-08-27T02:53:07.446Z,100435.94
2022-08-27T02:55:35.820Z,100433.31
2022-08-27T02:58:05.136Z,100451.63
2022-08-27T03:00:34.299Z,100449.00
2022-08-27T03:03:02.922Z,100458.63
2022-08-27T03:05:30.549Z,100457.75
2022-08-27T03:07:59.520Z,100449.03
2022-08-27T03:10:27.063Z,100459.50
2022-08-27T03:12:54.636Z,100444.69
2022-08-27T03:15:22.244Z,100449.94
2022-08-27T03:18:08.860Z,100450.81
2022-08-27T03:20:41.549Z,100469.13
2022-08-27T03:23:09.655Z,100452.53
2022-08-27T03:25:38.255Z,100445.56
2022-08-27T03:28:06.479Z,100468.25
2022-08-27T03:30:58.562Z,100457.78
2022-08-27T03:33:30.930Z,100480.44
2022-08-27T03:35:59.345Z,100474.38
2022-08-27T03:38:27.613Z,100457.75
2022-08-27T03:40:57.795Z,100476.13
2022-08-27T03:43:25.411Z,100470.00
2022-08-27T03:46:01.115Z,100468.25
2022-08-27T03:48:32.404Z,100477.03
2022-08-27T03:51:09.892Z,100476.16
2022-08-27T03:53:47.365Z,100470.06
2022-08-27T03:56:15.203Z,100468.28
2022-08-27T03:58:51.129Z,100482.25
2022-08-27T04:01:19.422Z,100476.97
2022-08-27T04:03:46.949Z,100483.09
2022-08-27T04:06:14.476Z,100473.44
2022-08-27T04:08:42.042Z,100449.88
2022-08-27T04:11:09.652Z,100482.16
2022-08-27T04:13:37.159Z,100480.38
2022-08-27T04:16:06.188Z,100469.88
2022-08-27T04:18:33.988Z,100466.41
2022-08-27T04:21:09.025Z,100475.94
2022-08-27T04:23:36.578Z,100480.28
2022-08-27T04:26:06.658Z,100455.78
2022-08-27T04:28:38.434Z,100467.06
2022-08-27T04:31:12.927Z,100473.97
2022-08-27T04:33:50.928Z,100464.25
2022-08-27T04:36:19.266Z,100469.38
2022-08-27T04:38:47.338Z,100465.81
2022-08-27T04:41:26.474Z,100453.44
2022-08-27T04:43:59.138Z,100464.72
2022-08-27T04:46:29.736Z,100458.56
2022-08-27T04:48:59.494Z,100471.53
2022-08-27T04:51:28.569Z,100471.47
2022-08-27T04:54:00.952Z,100467.84
2022-08-27T04:56:29.407Z,100472.97
2022-08-27T04:58:56.999Z,100470.97
2022-08-27T05:01:27.350Z,100470.88
2022-08-27T05:03:56.041Z,100459.41
2022-08-27T05:06:24.605Z,100475.09
2022-08-27T05:08:52.970Z,100475.06
2022-08-27T05:11:22.365Z,100475.88
2022-08-27T05:13:50.195Z,100455.72
2022-08-27T05:16:21.620Z,100463.38
2022-08-27T05:18:50.978Z,100461.41
2022-08-27T05:21:31.874Z,100469.69
2022-08-27T05:24:01.319Z,100459.91
2022-08-27T05:26:30.566Z,100463.97
2022-08-27T05:29:02.460Z,100446.38
2022-08-27T05:31:30.418Z,100460.09
2022-08-27T05:34:00.975Z,100465.88
2022-08-27T05:36:32.059Z,100469.06
2022-08-27T05:39:01.548Z,100467.78
2022-08-27T05:41:34.291Z,100476.19
2022-08-27T05:44:30.190Z,100453.06
2022-08-27T05:46:56.994Z,100469.22
2022-08-27T05:49:24.620Z,100466.25
2022-08-27T05:51:52.136Z,100457.94
2022-08-27T05:54:20.050Z,100457.47
2022-08-27T05:56:51.952Z,100470.28
2022-08-27T05:59:39.064Z,100461.09
2022-08-27T06:02:07.067Z,100465.31
2022-08-27T06:04:35.095Z,100448.91
2022-08-27T06:07:02.774Z,100466.81
2022-08-27T06:09:30.716Z,100465.44
2022-08-27T06:12:02.497Z,100447.00
2022-08-27T06:14:30.388Z,100458.19
2022-08-27T06:17:00.972Z,100465.91
2022-08-27T06:19:28.846Z,100461.44
2022-08-27T06:22:01.211Z,100441.22
2022-08-27T06:24:39.963Z,100461.16
2022-08-27T06:27:13.798Z,100456.47
2022-08-27T06:29:41.494Z,100459.66
2022-08-27T06:32:09.793Z,100457.63
2022-08-27T06:34:38.652Z,100463.25
2022-08-27T06:37:07.554Z,100447.22
2022-08-27T06:39:36.330Z,100454.66
2022-08-27T06:42:06.825Z,100457.09
2022-08-27T06:44:34.439Z,100437.03
2022-08-27T06:47:03.934Z,100444.91
2022-08-27T06:49:33.728Z,100455.31
2022-08-27T06:52:01.410Z,100446.97
2022-08-27T06:54:28.990Z,100454.72
2022-08-27T06:56:59.701Z,100450.41
2022-08-27T06:59:27.893Z,100431.56
2022-08-27T07:02:02.823Z,100450.44
2022-08-27T07:04:32.769Z,100439.22
2022-08-27T07:07:02.498Z,100442.16
2022-08-27T07:09:32.205Z,100440.50
2022-08-27T07:12:01.503Z,100452.78
2022-08-27T07:14:34.265Z,100447.19
2022-08-27T07:17:05.822Z,100449.84
2022-08-27T07:19:41.166Z,100449.69
2022-08-27T07:22:09.443Z,100440.44
2022-08-27T07:24:38.234Z,100442.69
2022-08-27T07:27:06.372Z,100443.06
2022-08-27T07:29:34.119Z,100436.31
2022-08-27T07:32:01.776Z,100432.25
2022-08-27T07:34:29.441Z,100427.56
2022-08-27T07:36:57.035Z,100433.84
2022-08-27T07:39:24.575Z,100437.00
2022-08-27T07:42:10.749Z,100430.94
2022-08-27T07:44:38.251Z,100434.72
2022-08-27T07:47:06.091Z,100439.16
2022-08-27T07:49:35.556Z,100435.66
2022-08-27T07:52:03.829Z,100438.50
2022-08-27T07:54:31.422Z,100445.56
2022-08-27T07:56:59.329Z,100429.97
2022-08-27T07:59:27.751Z,100437.34
2022-08-27T08:01:58.403Z,100439.84
2022-08-27T08:04:26.848Z,100427.47
2022-08-27T08:06:55.835Z,100439.22
2022-08-27T08:09:25.052Z,100434.84
2022-08-27T08:11:57.062Z,100422.53
2022-08-27T08:14:24.928Z,100423.25
2022-08-27T08:16:52.577Z,100420.03
2022-08-27T08:19:29.987Z,100419.31
2022-08-27T08:22:04.996Z,100432.50
2022-08-27T08:24:36.579Z,100424.31
2022-08-27T08:27:07.444Z,100416.44
2022-08-27T08:29:36.022Z,100420.00
2022-08-27T08:32:07.684Z,100423.44
2022-08-27T08:34:36.865Z,100415.19
2022-08-27T08:37:06.713Z,100416.31
2022-08-27T08:39:36.199Z,100408.63
2022-08-27T08:42:06.444Z,100409.59
2022-08-27T08:44:48.648Z,100410.81
2022-08-27T08:47:25.248Z,100407.75
2022-08-27T08:50:05.420Z,100401.72
2022-08-27T08:52:37.326Z,100398.56
2022-08-27T08:55:42.419Z,100393.72
2022-08-27T08:58:47.843Z,100401.81
2022-08-27T09:01:20.827Z,100395.88
2022-08-27T09:04:04.716Z,100389.78
2022-08-27T09:06:52.373Z,100397.22
2022-08-27T09:09:42.811Z,100388.97
2022-08-27T09:12:16.501Z,100381.94
2022-08-27T09:14:54.987Z,100395.31
2022-08-27T09:17:23.526Z,100400.38
2022-08-27T09:19:53.554Z,100387.13
2022-08-27T09:22:32.816Z,100389.41
2022-08-27T09:25:09.204Z,100392.13
2022-08-27T09:27:41.735Z,100387.41
2022-08-27T09:30:13.606Z,100387.56
2022-08-27T09:32:41.318Z,100384.34
2022-08-27T09:35:12.939Z,100390.63
2022-08-27T09:37:48.192Z,100379.41
2022-08-27T09:40:26.660Z,100377.41
2022-08-27T09:42:57.473Z,100392.19
2022-08-27T09:45:28.335Z,100386.88
2022-08-27T09:48:04.895Z,100380.66
2022-08-27T09:50:53.613Z,100385.84
2022-08-27T09:53:25.466Z,100388.44
2022-08-27T09:55:58.851Z,100376.50
2022-08-27T09:58:32.067Z,100380.72
2022-08-27T10:01:17.183Z,100387.63
2022-08-27T10:03:45.077Z,100383.38
2022-08-27T10:06:12.830Z,100386.13
2022-08-27T10:08:52.613Z,100391.22
2022-08-27T10:11:29.127Z,100375.78
2022-08-27T10:14:13.142Z,100392.50
2022-08-27T10:16:43.518Z,100384.66
2022-08-27T10:19:32.739Z,100385.19
2022-08-27T10:22:18.689Z,100381.22
2022-08-27T10:25:03.048Z,100371.03
2022-08-27T10:27:54.163Z,100376.78
2022-08-27T10:30:54.105Z,100383.78
2022-08-27T10:33:46.596Z,100383.41
2022-08-27T10:37:07.308Z,100372.72
2022-08-27T10:40:02.542Z,100362.19
2022-08-27T10:42:57.632Z,100367.22
2022-08-27T10:45:34.808Z,100364.22
2022-08-27T10:48:14.283Z,100375.53
2022-08-27T10:50:44.381Z,100361.19
2022-08-27T10:53:38.765Z,100360.88
2022-08-27T10:56:33.271Z,100357.59
2022-08-27T10:59:25.525Z,100355.41
2022-08-27T11:02:11.126Z,100359.56
2022-08-27T11:04:49.615Z,100361.69
2022-08-27T11:07:49.681Z,100356.91
2022-08-27T11:10:28.535Z,100355.16
2022-08-27T11:13:00.164Z,100358.25
2022-08-27T11:15:36.973Z,100355.06
2022-08-27T11:18:11.951Z,100330.81
2022-08-27T11:20:53.957Z,100341.41
2022-08-27T11:23:36.540Z,100345.38
2022-08-27T11:26:06.823Z,100342.16
2022-08-27T11:28:48.658Z,100336.53
2022-08-27T11:31:22.882Z,100340.94
2022-08-27T11:34:12.499Z,100341.94
2022-08-27T11:37:03.262Z,100335.72
2022-08-27T11:39:51.736Z,100334.13
2022-08-27T11:42:52.333Z,100334.91
2022-08-27T11:45:28.633Z,100336.13
2022-08-27T11:47:59.882Z,100324.13
2022-08-27T11:50:30.981Z,100329.59
2022-08-27T11:53:02.281Z,100341.50
2022-08-27T11:55:38.535Z,100316.16
2022-08-27T11:58:10.838Z,100319.91
2022-08-27T12:00:49.526Z,100324.25
2022-08-27T12:03:19.815Z,100316.00
2022-08-27T12:06:26.587Z,100318.34
2022-08-27T12:09:16.600Z,100314.97
2022-08-27T12:11:55.991Z,100312.53
2022-08-27T12:14:35.002Z,100311.13
2022-08-27T12:17:11.212Z,100313.72
2022-08-27T12:20:03.415Z,100309.19
2022-08-27T12:23:11.027Z,100318.56
2022-08-27T12:25:38.614Z,100313.06
2022-08-27T12:28:09.391Z,100307.16
2022-08-27T12:30:49.509Z,100310.91
2022-08-27T12:33:39.705Z,100309.09
2022-08-27T12:36:27.979Z,100297.63
2022-08-27T12:38:58.576Z,100304.25
2022-08-27T12:41:44.572Z,100303.41
2022-08-27T12:44:23.330Z,100302.28
2022-08-27T12:46:55.003Z,100299.25
2022-08-27T12:49:37.142Z,100289.22
2022-08-27T12:52:32.515Z,100295.31
2022-08-27T12:55:52.399Z,100291.53
2022-08-27T12:58:31.710Z,100293.75
2022-08-27T13:01:26.713Z,100291.50
2022-08-27T13:03:56.115Z,100292.88
2022-08-27T13:06:33.364Z,100287.59
2022-08-27T13:09:04.443Z,100284.00
2022-08-27T13:11:44.411Z,100287.28
2022-08-27T13:14:22.380Z,100281.88
2022-08-27T13:16:59.578Z,100287.19
2022-08-27T13:19:29.678Z,100282.44
2022-08-27T13:21:58.458Z,100287.00
2022-08-27T13:24:49.815Z,100276.00
2022-08-27T13:27:35.086Z,100278.72
2022-08-27T13:30:11.948Z,100272.47
2022-08-27T13:33:00.082Z,100270.72
2022-08-27T13:35:28.246Z,100274.78
2022-08-27T13:37:57.641Z,100278.25
2022-08-27T13:40:30.744Z,100273.81
2022-08-27T13:43:05.206Z,100268.38
2022-08-27T13:45:40.760Z,100271.50
2022-08-27T13:48:11.798Z,100266.84
2022-08-27T13:50:49.958Z,100267.31
2022-08-27T13:53:43.221Z,100264.22
2022-08-27T13:56:11.371Z,100270.16
2022-08-27T13:58:41.939Z,100275.22
2022-08-27T14:01:15.497Z,100271.28
2022-08-27T14:04:10.847Z,100276.78
2022-08-27T14:06:47.623Z,100275.50
2022-08-27T14:09:21.604Z,100269.03
2022-08-27T14:11:49.695Z,100267.31
2022-08-27T14:14:19.063Z,100270.94
2022-08-27T14:16:58.935Z,100269.22
2022-08-27T14:19:33.409Z,100270.25
2022-08-27T14:22:04.531Z,100266.16
2022-08-27T14:24:32.030Z,100256.97
2022-08-27T14:27:08.902Z,100265.13
2022-08-27T14:29:37.747Z,100263.88
2022-08-27T14:32:07.734Z,100261.47
2022-08-27T14:34:35.952Z,100260.84
2022-08-27T14:37:04.722Z,100248.84
2022-08-27T14:39:32.548Z,100256.81
2022-08-27T14:42:01.053Z,100257.88
2022-08-27T14:44:28.721Z,100249.38
2022-08-27T14:46:57.466Z,100256.53
2022-08-27T14:49:32.154Z,100257.63
2022-08-27T14:52:00.113Z,100255.19
2022-08-27T14:54:29.059Z,100256.28
2022-08-27T14:57:03.043Z,100259.19
2022-08-27T14:59:31.921Z,100249.88
2022-08-27T15:02:02.118Z,100246.72
2022-08-27T15:04:30.207Z,100247.66
2022-08-27T15:06:58.036Z,100257.69
2022-08-27T15:09:25.886Z,100249.16
2022-08-27T15:11:54.123Z,100252.91
2022-08-27T15:14:28.590Z,100253.19
2022-08-27T15:16:56.363Z,100249.16
2022-08-27T15:19:26.238Z,100254.53
2022-08-27T15:21:57.271Z,100259.19
2022-08-27T15:24:28.451Z,100257.63
2022-08-27T15:27:00.068Z,100249.00
2022-08-27T15:29:27.759Z,100259.59
2022-08-27T15:31:58.061Z,100260.69
2022-08-27T15:34:25.653Z,100251.19
2022-08-27T15:36:53.321Z,100247.81
2022-08-27T15:39:21.124Z,100251.50
2022-08-27T15:42:05.938Z,100257.03
2022-08-27T15:44:35.549Z,100253.66
2022-08-27T15:47:06.403Z,100253.88
2022-08-27T15:49:34.169Z,100247.81
2022-08-27T15:52:02.201Z,100251.47
2022-08-27T15:54:31.337Z,100245.50
2022-08-27T15:57:00.153Z,100243.84
2022-08-27T15:59:28.175Z,100236.16
2022-08-27T16:01:56.087Z,100237.06
2022-08-27T16:04:23.783Z,100243.47
2022-08-27T16:06:51.310Z,100244.50
2022-08-27T16:09:19.806Z,100224.59
2022-08-27T16:11:47.416Z,100235.25
2022-08-27T16:14:15.906Z,100244.28
2022-08-27T16:16:46.287Z,100245.22
2022-08-27T16:19:16.615Z,100232.13
2022-08-27T16:21:44.441Z,100235.88
2022-08-27T16:24:12.775Z,100238.56
2022-08-27T16:26:40.372Z,100237.78
2022-08-27T16:29:08.092Z,100241.38
2022-08-27T16:31:37.269Z,100247.63
2022-08-27T16:34:15.260Z,100243.50
2022-08-27T16:36:43.213Z,100242.78
2022-08-27T16:39:10.888Z,100242.97
2022-08-27T16:41:38.541Z,100248.28
2022-08-27T16:44:06.966Z,100244.97
2022-08-27T16:46:34.707Z,100242.53
2022-08-27T16:49:21.163Z,100251.34
2022-08-27T16:51:48.827Z,100246.22
2022-08-27T16:54:17.056Z,100251.69
2022-08-27T16:56:46.297Z,100249.31
2022-08-27T16:59:14.322Z,100247.63
2022-08-27T17:01:43.279Z,100251.13
2022-08-27T17:04:19.332Z,100260.06
2022-08-27T17:06:51.783Z,100257.66
2022-08-27T17:09:27.042Z,100254.31
2022-08-27T17:11:58.592Z,100262.31
2022-08-27T17:14:26.931Z,100258.94
2022-08-27T17:16:54.572Z,100257.25
2022-08-27T17:19:24.507Z,100260.94
2022-08-27T17:21:54.961Z,100260.97
2022-08-27T17:24:22.832Z,100261.09
2022-08-27T17:26:50.367Z,100252.41
2022-08-27T17:29:19.105Z,100243.78
2022-08-27T17:31:46.667Z,100259.50
2022-08-27T17:34:22.049Z,100268.31
2022-08-27T17:36:51.960Z,100276.38
2022-08-27T17:39:19.864Z,100252.91
2022-08-27T17:41:50.668Z,100271.31
2022-08-27T17:44:34.975Z,100270.50
2022-08-27T17:47:05.922Z,100265.41
2022-08-27T17:49:33.941Z,100263.94
2022-08-27T17:52:09.815Z,100279.72
2022-08-27T17:54:44.770Z,100273.75
2022-08-27T17:57:40.237Z,100260.66
2022-08-27T18:00:11.264Z,100274.84
2022-08-27T18:02:45.182Z,100256.75
2022-08-27T18:05:15.554Z,100277.69
2022-08-27T18:07:44.110Z,100277.84
2022-08-27T18:10:15.033Z,100282.38
2022-08-27T18:12:43.440Z,100285.09
2022-08-27T18:15:17.285Z,100283.38
2022-08-27T18:17:44.987Z,100284.38
2022-08-27T18:20:15.770Z,100275.84
2022-08-27T18:22:48.248Z,100271.53
2022-08-27T18:25:18.471Z,100282.03
2022-08-27T18:27:50.031Z,100284.72
2022-08-27T18:30:17.796Z,100284.75
2022-08-27T18:32:45.507Z,100283.13
2022-08-27T18:35:32.580Z,100281.38
2022-08-27T18:38:06.669Z,100278.81
2022-08-27T18:40:41.396Z,100273.69
2022-08-27T18:43:11.846Z,100277.22
2022-08-27T18:45:39.623Z,100274.72
2022-08-27T18:48:17.700Z,100272.13
2022-08-27T18:50:55.578Z,100274.72
2022-08-27T18:53:23.851Z,100274.75
2022-08-27T18:55:52.365Z,100269.53
2022-08-27T18:58:23.264Z,100264.38
2022-08-27T19:00:55.859Z,100271.47
2022-08-27T19:03:36.841Z,100265.28
2022-08-27T19:06:07.920Z,100275.91
2022-08-27T19:08:38.407Z,100270.72
2022-08-27T19:11:26.186Z,100269.81
2022-08-27T19:13:53.885Z,100260.34
2022-08-27T19:16:55.886Z,100277.84
2022-08-27T19:19:25.870Z,100267.44
2022-08-27T19:21:53.592Z,100271.06
2022-08-27T19:24:22.117Z,100272.84
2022-08-27T19:26:50.568Z,100272.91
2022-08-27T19:29:19.895Z,100268.53
2022-08-27T19:31:47.611Z,100272.94
2022-08-27T19:34:15.399Z,100266.09
2022-08-27T19:36:43.731Z,100271.38
2022-08-27T19:39:13.256Z,100270.56
2022-08-27T19:41:41.365Z,100277.56
2022-08-27T19:44:09.092Z,100264.59
2022-08-27T19:46:37.921Z,100269.78
2022-08-27T19:49:05.695Z,100266.34
2022-08-27T19:51:33.639Z,100267.28
2022-08-27T19:54:01.604Z,100269.13
2022-08-27T19:56:32.559Z,100270.88
2022-08-27T19:59:13.441Z,100265.66
2022-08-27T20:01:47.993Z,100268.31
2022-08-27T20:04:15.542Z,100267.50
2022-08-27T20:06:43.140Z,100268.41
2022-08-27T20:09:16.279Z,100264.97
2022-08-27T20:11:46.010Z,100266.72
2022-08-27T20:14:13.662Z,100269.38
2022-08-27T20:16:41.586Z,100257.06
2022-08-27T20:19:10.026Z,100259.78
2022-08-27T20:21:40.110Z,100265.94
2022-08-27T20:24:07.654Z,100257.25
2022-08-27T20:26:35.363Z,100255.56
2022-08-27T20:29:03.099Z,100253.88
2022-08-27T20:31:31.254Z,100254.78
2022-08-27T20:33:58.936Z,100237.56
2022-08-27T20:36:29.839Z,100259.41
2022-08-27T20:38:57.750Z,100261.25
2022-08-27T20:41:25.393Z,100258.75
2022-08-27T20:43:56.152Z,100259.63
2022-08-27T20:46:26.543Z,100254.53
2022-08-27T20:48:56.565Z,100264.13
2022-08-27T20:51:27.437Z,100261.59
2022-08-27T20:53:55.286Z,100261.63
2022-08-27T20:56:22.834Z,100254.72
2022-08-27T20:59:09.241Z,100254.78
2022-08-27T21:01:37.342Z,100253.03
2022-08-27T21:04:04.996Z,100255.75
2022-08-27T21:06:33.558Z,100260.97
2022-08-27T21:09:01.260Z,100261.84
2022-08-27T21:11:29.071Z,100259.22
2022-08-27T21:13:56.903Z,100259.19
2022-08-27T21:16:25.938Z,100260.97
2022-08-27T21:18:54.076Z,100255.72
2022-08-27T21:21:22.275Z,100256.59
2022-08-27T21:23:49.782Z,100259.19
2022-08-27T21:26:17.398Z,100254.81
2022-08-27T21:28:44.867Z,100243.56
2022-08-27T21:31:12.399Z,100246.16
2022-08-27T21:33:40.222Z,100248.75
2022-08-27T21:36:11.842Z,100247.03
2022-08-27T21:38:40.281Z,100246.22
2022-08-27T21:41:14.024Z,100249.75
2022-08-27T21:43:41.719Z,100248.91
2022-08-27T21:46:09.262Z,100248.09
2022-08-27T21:48:38.042Z,100256.00
2022-08-27T21:51:15.236Z,100245.50
2022-08-27T21:53:52.185Z,100235.09
2022-08-27T21:56:19.738Z,100243.84
2022-08-27T21:58:47.515Z,100232.56
2022-08-27T22:01:15.602Z,100236.91
2022-08-27T22:03:47.009Z,100230.00
2022-08-27T22:06:20.840Z,100236.97
2022-08-27T22:08:48.823Z,100221.28
2022-08-27T22:11:21.925Z,100219.53
2022-08-27T22:13:52.717Z,100231.84
2022-08-27T22:16:23.000Z,100220.53
2022-08-27T22:18:54.490Z,100224.06
2022-08-27T22:21:24.040Z,100226.72
2022-08-27T22:23:53.131Z,100225.84
2022-08-27T22:26:22.224Z,100215.44
2022-08-27T22:28:50.011Z,100225.03
2022-08-27T22:31:25.350Z,100225.91
2022-08-27T22:33:53.597Z,100223.28
2022-08-27T22:36:21.122Z,100217.19
2022-08-27T22:38:48.671Z,100215.47
2022-08-27T22:41:18.428Z,100216.44
2022-08-27T22:43:54.364Z,100228.66
2022-08-27T22:46:24.652Z,100223.47
2022-08-27T22:48:52.320Z,100218.28
2022-08-27T22:51:22.675Z,100219.19
2022-08-27T22:53:50.278Z,100217.56
2022-08-27T22:56:17.933Z,100219.28
2022-08-27T22:58:45.997Z,100207.13
2022-08-27T23:01:19.466Z,100217.59
2022-08-27T23:03:47.864Z,100222.00
2022-08-27T23:06:17.002Z,100226.34
2022-08-27T23:08:44.603Z,100222.88
2022-08-27T23:11:12.617Z,100224.66
2022-08-27T23:13:41.197Z,100222.00
2022-08-27T23:16:11.757Z,100223.75
2022-08-27T23:18:40.762Z,100220.28
2022-08-27T23:21:09.523Z,100216.81
2022-08-27T23:23:37.692Z,100223.75
2022-08-27T23:26:23.947Z,100200.22
2022-08-27T23:28:51.650Z,100210.69
2022-08-27T23:31:19.531Z,100207.19
2022-08-27T23:33:50.609Z,100213.31
2022-08-27T23:36:19.115Z,100207.22
2022-08-27T23:38:47.139Z,100212.47
2022-08-27T23:41:17.922Z,100204.66
2022-08-27T23:43:45.650Z,100193.28
2022-08-27T23:46:13.547Z,100209.00
2022-08-27T23:48:41.125Z,100207.25
2022-08-27T23:51:11.389Z,100205.53
2022-08-27T23:53:39.213Z,100207.31
2022-08-27T23:56:06.945Z,100196.84
2022-08-27T23:58:34.654Z,100206.47
